Girdwood, AK (99587)

11:39 AM AKDT on September 21, 2014 (GMT -0800)
RAWS GIRDWOOD AK US | Change Station
CLOSE
Current Station
Personal Weather Station
Location: Girdwood, AK
Elevation: 174 ft
Nearby Weather Stations

Elev 174 ft 60.97 °N, 149.12 °W | Updated 43 minutes ago

Overcast
Overcast
52 °F
Feels Like 52 °F
N
2
Wind Variable Wind from SSE
Gusts 4.0 mph

Today
High -- | Low -- °F
--% Chance of Precip.
Yesterday
High -- | Low -- °F
Precip. -- in
7:38 AM 7:58 PM
Waning Crescent, 5% visible
Pressure 29.57 in
Visibility 10.0 miles
Clouds Overcast 4900 ft
Dew Point 48 °F
Humidity 87%
Rainfall 0.00 in
Snow Depth 1 in , 0 in , 0 in
UV 1 out of 12
Pollen Not available.
Air Quality Not available.
Flu Activity Not available.
METAR PATO 211853Z AUTO VRB03KT 10SM OVC049 08/07 A2956 RMK AO2 SLP011 T00830067 TSNO

More Conditions Fewer Conditions

Pressure 29.57 in
Visibility 10.0 miles
Clouds Overcast 4900 ft
Dew Point 48 °F
Humidity 87%
Rainfall 0.00 in
Snow Depth 1 in , 0 in , 0 in
UV 1 out of 12
Pollen Not available.
Air Quality Not available.
Flu Activity Not available.
METAR PATO 211853Z AUTO VRB03KT 10SM OVC049 08/07 A2956 RMK AO2 SLP011 T00830067 TSNO

More Conditions Fewer Conditions

10-Day Weather Forecast

Almanac

Astronomy

Sep. 21, 2014 Rise Set
Actual Time 7:38 AM AKDT 7:58 PM AKDT
Civil Twilight 6:55 AM AKDT 8:41 PM AKDT
Nautical Twilight 6:03 AM AKDT 9:33 PM AKDT
Astronomical Twilight 5:05 AM AKDT 10:30 PM AKDT
Moon 4:52 AM AKDT 7:00 PM AKDT
Length of Visible Light 13h 46m
Length of Day
12h 20m
Tomorrow will be 5m 36s shorter.
Waning Crescent, 5% of the Moon is Illuminated
Today
Waning Crescent
Sep 24
New
Oct 1
First Quarter
Oct 8
Full
Oct 15
Last Quarter

Today's Extremes

State Highs State Lows

Community

WunderPhotos

Upload Photos

1,755,232 photos uploaded!

Nearby

Snow Depth

Station Depth Elevation
Indian Pass 1 in 2300 ft
Moraine 0 in 2100 ft
Fort Yukon 0 in 430 ft
Imnaviat Creek 3 in 3050 ft
Long Lake 0 in 820 ft

Earthquake Activity

City Distance Mag. Time & Date
No recent earthquake activity has been reported nearby.
Minimum magnitude displayed is 2.5.

Coastal Water Temperatures

Place Temperature
No Stations Reporting

Nearby Weather Stations